sensor_id;sensor_type;location;lat;lon;timestamp;temperature;humidity
3550;DHT22;45572;48.804;8.330;2024-01-25T00:02:02;11.80;85.90
3550;DHT22;45572;48.804;8.330;2024-01-25T00:04:30;11.80;86.10
3550;DHT22;45572;48.804;8.330;2024-01-25T00:06:58;11.80;86.30
3550;DHT22;45572;48.804;8.330;2024-01-25T00:09:26;11.80;86.20
3550;DHT22;45572;48.804;8.330;2024-01-25T00:11:54;11.90;86.50
3550;DHT22;45572;48.804;8.330;2024-01-25T00:14:22;11.90;86.40
3550;DHT22;45572;48.804;8.330;2024-01-25T00:16:50;11.90;86.50
3550;DHT22;45572;48.804;8.330;2024-01-25T00:19:19;11.90;86.70
3550;DHT22;45572;48.804;8.330;2024-01-25T00:21:47;11.90;86.80
3550;DHT22;45572;48.804;8.330;2024-01-25T00:24:15;11.90;87.20
3550;DHT22;45572;48.804;8.330;2024-01-25T00:26:43;11.90;87.10
3550;DHT22;45572;48.804;8.330;2024-01-25T00:29:10;11.90;87.10
3550;DHT22;45572;48.804;8.330;2024-01-25T00:31:38;11.90;86.80
3550;DHT22;45572;48.804;8.330;2024-01-25T00:34:06;11.90;86.90
3550;DHT22;45572;48.804;8.330;2024-01-25T00:36:36;11.90;87.20
3550;DHT22;45572;48.804;8.330;2024-01-25T00:39:04;11.90;87.10
3550;DHT22;45572;48.804;8.330;2024-01-25T00:41:32;11.80;87.10
3550;DHT22;45572;48.804;8.330;2024-01-25T00:44:01;11.90;87.20
3550;DHT22;45572;48.804;8.330;2024-01-25T00:46:29;11.90;87.10
3550;DHT22;45572;48.804;8.330;2024-01-25T00:48:57;11.80;87.30
3550;DHT22;45572;48.804;8.330;2024-01-25T00:51:26;11.90;87.30
3550;DHT22;45572;48.804;8.330;2024-01-25T00:53:55;11.90;87.20
3550;DHT22;45572;48.804;8.330;2024-01-25T00:56:23;11.90;87.30
3550;DHT22;45572;48.804;8.330;2024-01-25T00:58:51;11.90;87.30
3550;DHT22;45572;48.804;8.330;2024-01-25T01:01:21;12.00;87.30
3550;DHT22;45572;48.804;8.330;2024-01-25T01:03:51;11.90;87.40
3550;DHT22;45572;48.804;8.330;2024-01-25T01:06:20;11.90;87.50
3550;DHT22;45572;48.804;8.330;2024-01-25T01:08:48;11.90;87.70
3550;DHT22;45572;48.804;8.330;2024-01-25T01:11:18;11.90;88.00
3550;DHT22;45572;48.804;8.330;2024-01-25T01:13:46;11.90;87.80
3550;DHT22;45572;48.804;8.330;2024-01-25T01:16:13;11.90;87.90
3550;DHT22;45572;48.804;8.330;2024-01-25T01:18:41;11.90;87.80
3550;DHT22;45572;48.804;8.330;2024-01-25T01:21:09;12.00;88.00
3550;DHT22;45572;48.804;8.330;2024-01-25T01:23:37;11.90;88.30
3550;DHT22;45572;48.804;8.330;2024-01-25T01:26:05;11.90;88.20
3550;DHT22;45572;48.804;8.330;2024-01-25T01:28:34;11.90;88.50
3550;DHT22;45572;48.804;8.330;2024-01-25T01:31:02;11.90;88.60
3550;DHT22;45572;48.804;8.330;2024-01-25T01:33:30;11.90;88.70
3550;DHT22;45572;48.804;8.330;2024-01-25T01:35:58;11.90;89.00
3550;DHT22;45572;48.804;8.330;2024-01-25T01:38:26;11.80;89.00
3550;DHT22;45572;48.804;8.330;2024-01-25T01:40:53;11.80;89.00
3550;DHT22;45572;48.804;8.330;2024-01-25T01:43:21;11.80;88.90
3550;DHT22;45572;48.804;8.330;2024-01-25T01:45:51;11.80;89.10
3550;DHT22;45572;48.804;8.330;2024-01-25T01:48:20;11.90;89.10
3550;DHT22;45572;48.804;8.330;2024-01-25T01:50:48;11.80;89.10
3550;DHT22;45572;48.804;8.330;2024-01-25T01:53:17;11.90;89.10
3550;DHT22;45572;48.804;8.330;2024-01-25T01:55:45;11.90;89.30
3550;DHT22;45572;48.804;8.330;2024-01-25T01:58:13;11.80;89.50
3550;DHT22;45572;48.804;8.330;2024-01-25T02:00:42;11.70;89.30
3550;DHT22;45572;48.804;8.330;2024-01-25T02:03:12;11.70;89.70
3550;DHT22;45572;48.804;8.330;2024-01-25T02:05:41;11.70;89.70
3550;DHT22;45572;48.804;8.330;2024-01-25T02:08:09;11.80;89.60
3550;DHT22;45572;48.804;8.330;2024-01-25T02:10:37;11.80;89.60
3550;DHT22;45572;48.804;8.330;2024-01-25T02:13:04;11.70;89.70
3550;DHT22;45572;48.804;8.330;2024-01-25T02:15:32;11.70;89.80
3550;DHT22;45572;48.804;8.330;2024-01-25T02:18:01;11.70;89.80
3550;DHT22;45572;48.804;8.330;2024-01-25T02:20:30;11.70;89.70
3550;DHT22;45572;48.804;8.330;2024-01-25T02:23:00;11.80;89.70
3550;DHT22;45572;48.804;8.330;2024-01-25T02:25:28;11.80;89.80
3550;DHT22;45572;48.804;8.330;2024-01-25T02:27:55;11.80;89.30
3550;DHT22;45572;48.804;8.330;2024-01-25T02:30:23;11.80;89.10
3550;DHT22;45572;48.804;8.330;2024-01-25T02:32:51;11.70;89.10
3550;DHT22;45572;48.804;8.330;2024-01-25T02:35:20;11.70;89.10
3550;DHT22;45572;48.804;8.330;2024-01-25T02:37:48;11.70;89.20
3550;DHT22;45572;48.804;8.330;2024-01-25T02:40:18;11.70;89.30
3550;DHT22;45572;48.804;8.330;2024-01-25T02:42:46;11.60;89.50
3550;DHT22;45572;48.804;8.330;2024-01-25T02:45:14;11.60;89.60
3550;DHT22;45572;48.804;8.330;2024-01-25T02:47:42;11.60;89.80
3550;DHT22;45572;48.804;8.330;2024-01-25T02:50:10;11.60;89.60
3550;DHT22;45572;48.804;8.330;2024-01-25T02:52:38;11.50;89.80
3550;DHT22;45572;48.804;8.330;2024-01-25T02:55:06;11.30;89.30
3550;DHT22;45572;48.804;8.330;2024-01-25T02:57:35;11.20;89.50
3550;DHT22;45572;48.804;8.330;2024-01-25T03:00:03;11.10;89.50
3550;DHT22;45572;48.804;8.330;2024-01-25T03:02:31;11.10;89.60
3550;DHT22;45572;48.804;8.330;2024-01-25T03:04:59;11.00;89.70
3550;DHT22;45572;48.804;8.330;2024-01-25T03:07:27;11.00;89.80
3550;DHT22;45572;48.804;8.330;2024-01-25T03:09:55;11.10;89.80
3550;DHT22;45572;48.804;8.330;2024-01-25T03:12:23;11.00;89.60
3550;DHT22;45572;48.804;8.330;2024-01-25T03:14:52;11.00;89.80
3550;DHT22;45572;48.804;8.330;2024-01-25T03:17:20;11.00;89.90
3550;DHT22;45572;48.804;8.330;2024-01-25T03:19:48;10.90;89.90
3550;DHT22;45572;48.804;8.330;2024-01-25T03:22:16;11.00;90.00
3550;DHT22;45572;48.804;8.330;2024-01-25T03:24:44;11.00;89.90
3550;DHT22;45572;48.804;8.330;2024-01-25T03:27:12;11.00;89.90
3550;DHT22;45572;48.804;8.330;2024-01-25T03:29:41;11.00;89.90
3550;DHT22;45572;48.804;8.330;2024-01-25T03:32:11;11.00;90.00
3550;DHT22;45572;48.804;8.330;2024-01-25T03:34:39;11.00;89.80
3550;DHT22;45572;48.804;8.330;2024-01-25T03:37:07;11.00;89.90
3550;DHT22;45572;48.804;8.330;2024-01-25T03:39:35;11.00;90.10
3550;DHT22;45572;48.804;8.330;2024-01-25T03:42:03;10.90;90.40
3550;DHT22;45572;48.804;8.330;2024-01-25T03:44:31;11.00;90.60
3550;DHT22;45572;48.804;8.330;2024-01-25T03:46:58;11.00;90.70
3550;DHT22;45572;48.804;8.330;2024-01-25T03:49:28;11.00;90.80
3550;DHT22;45572;48.804;8.330;2024-01-25T03:51:56;10.90;90.90
3550;DHT22;45572;48.804;8.330;2024-01-25T03:54:24;11.00;91.10
3550;DHT22;45572;48.804;8.330;2024-01-25T03:56:52;11.00;91.00
3550;DHT22;45572;48.804;8.330;2024-01-25T03:59:20;11.10;91.00
3550;DHT22;45572;48.804;8.330;2024-01-25T04:01:47;11.10;90.80
3550;DHT22;45572;48.804;8.330;2024-01-25T04:04:16;11.00;90.90
3550;DHT22;45572;48.804;8.330;2024-01-25T04:06:46;11.10;90.80
3550;DHT22;45572;48.804;8.330;2024-01-25T04:09:14;11.10;90.90
3550;DHT22;45572;48.804;8.330;2024-01-25T04:11:42;11.00;90.80
3550;DHT22;45572;48.804;8.330;2024-01-25T04:14:10;11.00;90.70
3550;DHT22;45572;48.804;8.330;2024-01-25T04:16:38;11.00;90.70
3550;DHT22;45572;48.804;8.330;2024-01-25T04:19:06;10.90;91.00
3550;DHT22;45572;48.804;8.330;2024-01-25T04:21:37;10.90;91.00
3550;DHT22;45572;48.804;8.330;2024-01-25T04:24:07;10.90;90.80
3550;DHT22;45572;48.804;8.330;2024-01-25T04:26:34;10.90;90.90
3550;DHT22;45572;48.804;8.330;2024-01-25T04:29:02;10.90;90.90
3550;DHT22;45572;48.804;8.330;2024-01-25T04:31:30;10.90;90.90
3550;DHT22;45572;48.804;8.330;2024-01-25T04:33:58;10.90;90.90
3550;DHT22;45572;48.804;8.330;2024-01-25T04:36:26;11.00;90.90
3550;DHT22;45572;48.804;8.330;2024-01-25T04:38:53;10.90;90.70
3550;DHT22;45572;48.804;8.330;2024-01-25T04:41:23;10.90;90.70
3550;DHT22;45572;48.804;8.330;2024-01-25T04:43:50;10.90;90.80
3550;DHT22;45572;48.804;8.330;2024-01-25T04:46:18;10.90;90.70
3550;DHT22;45572;48.804;8.330;2024-01-25T04:48:46;10.90;90.70
3550;DHT22;45572;48.804;8.330;2024-01-25T04:51:15;10.90;90.90
3550;DHT22;45572;48.804;8.330;2024-01-25T04:53:43;10.90;91.10
3550;DHT22;45572;48.804;8.330;2024-01-25T04:56:11;10.90;91.10
3550;DHT22;45572;48.804;8.330;2024-01-25T04:58:41;11.00;90.90
3550;DHT22;45572;48.804;8.330;2024-01-25T05:01:08;11.00;91.00
3550;DHT22;45572;48.804;8.330;2024-01-25T05:03:36;11.00;90.90
3550;DHT22;45572;48.804;8.330;2024-01-25T05:06:05;11.10;90.90
3550;DHT22;45572;48.804;8.330;2024-01-25T05:08:33;11.00;90.90
3550;DHT22;45572;48.804;8.330;2024-01-25T05:11:01;11.00;90.90
3550;DHT22;45572;48.804;8.330;2024-01-25T05:13:31;11.00;91.00
3550;DHT22;45572;48.804;8.330;2024-01-25T05:16:00;11.00;91.10
3550;DHT22;45572;48.804;8.330;2024-01-25T05:18:28;11.00;91.00
3550;DHT22;45572;48.804;8.330;2024-01-25T05:20:56;10.90;91.10
3550;DHT22;45572;48.804;8.330;2024-01-25T05:23:25;10.90;91.30
3550;DHT22;45572;48.804;8.330;2024-01-25T05:25:53;10.80;91.40
3550;DHT22;45572;48.804;8.330;2024-01-25T05:28:20;10.80;91.50
3550;DHT22;45572;48.804;8.330;2024-01-25T05:30:48;10.80;91.60
3550;DHT22;45572;48.804;8.330;2024-01-25T05:33:18;10.80;91.70
3550;DHT22;45572;48.804;8.330;2024-01-25T05:35:46;10.80;91.70
3550;DHT22;45572;48.804;8.330;2024-01-25T05:38:14;10.80;91.80
3550;DHT22;45572;48.804;8.330;2024-01-25T05:40:42;10.70;91.70
3550;DHT22;45572;48.804;8.330;2024-01-25T05:43:10;10.70;91.80
3550;DHT22;45572;48.804;8.330;2024-01-25T05:45:38;10.70;91.80
3550;DHT22;45572;48.804;8.330;2024-01-25T05:48:07;10.70;91.80
3550;DHT22;45572;48.804;8.330;2024-01-25T05:50:36;10.80;91.80
3550;DHT22;45572;48.804;8.330;2024-01-25T05:53:04;10.70;91.70
3550;DHT22;45572;48.804;8.330;2024-01-25T05:55:31;10.70;91.80
3550;DHT22;45572;48.804;8.330;2024-01-25T05:57:59;10.80;91.80
3550;DHT22;45572;48.804;8.330;2024-01-25T06:00:27;10.80;91.80
3550;DHT22;45572;48.804;8.330;2024-01-25T06:02:56;10.70;91.90
3550;DHT22;45572;48.804;8.330;2024-01-25T06:05:24;10.80;91.90
3550;DHT22;45572;48.804;8.330;2024-01-25T06:07:53;10.70;91.90
3550;DHT22;45572;48.804;8.330;2024-01-25T06:10:22;10.60;92.00
3550;DHT22;45572;48.804;8.330;2024-01-25T06:12:50;10.40;92.40
3550;DHT22;45572;48.804;8.330;2024-01-25T06:15:18;10.30;92.60
3550;DHT22;45572;48.804;8.330;2024-01-25T06:17:45;10.20;92.90
3550;DHT22;45572;48.804;8.330;2024-01-25T06:20:13;10.10;93.20
3550;DHT22;45572;48.804;8.330;2024-01-25T06:22:41;10.10;93.40
3550;DHT22;45572;48.804;8.330;2024-01-25T06:25:10;10.00;93.70
3550;DHT22;45572;48.804;8.330;2024-01-25T06:27:38;9.90;93.70
3550;DHT22;45572;48.804;8.330;2024-01-25T06:30:07;9.90;93.90
3550;DHT22;45572;48.804;8.330;2024-01-25T06:32:34;9.80;94.10
3550;DHT22;45572;48.804;8.330;2024-01-25T06:35:02;9.80;94.20
3550;DHT22;45572;48.804;8.330;2024-01-25T06:37:31;9.70;94.20
3550;DHT22;45572;48.804;8.330;2024-01-25T06:39:59;9.60;94.50
3550;DHT22;45572;48.804;8.330;2024-01-25T06:42:29;9.60;94.50
3550;DHT22;45572;48.804;8.330;2024-01-25T06:44:57;9.60;94.40
3550;DHT22;45572;48.804;8.330;2024-01-25T06:47:25;9.50;94.40
3550;DHT22;45572;48.804;8.330;2024-01-25T06:49:52;9.50;94.50
3550;DHT22;45572;48.804;8.330;2024-01-25T06:52:20;9.40;94.80
3550;DHT22;45572;48.804;8.330;2024-01-25T06:54:49;9.40;94.90
3550;DHT22;45572;48.804;8.330;2024-01-25T06:57:17;9.40;94.80
3550;DHT22;45572;48.804;8.330;2024-01-25T06:59:46;9.50;94.40
3550;DHT22;45572;48.804;8.330;2024-01-25T07:02:14;9.50;93.90
3550;DHT22;45572;48.804;8.330;2024-01-25T07:04:43;9.50;93.50
3550;DHT22;45572;48.804;8.330;2024-01-25T07:07:11;9.50;93.30
3550;DHT22;45572;48.804;8.330;2024-01-25T07:09:39;9.40;93.20
3550;DHT22;45572;48.804;8.330;2024-01-25T07:12:07;9.40;93.50
3550;DHT22;45572;48.804;8.330;2024-01-25T07:14:35;9.40;93.30
3550;DHT22;45572;48.804;8.330;2024-01-25T07:17:05;9.40;92.90
3550;DHT22;45572;48.804;8.330;2024-01-25T07:19:33;9.30;92.60
3550;DHT22;45572;48.804;8.330;2024-01-25T07:22:00;9.30;92.50
3550;DHT22;45572;48.804;8.330;2024-01-25T07:24:28;9.30;92.50
3550;DHT22;45572;48.804;8.330;2024-01-25T07:26:56;9.20;92.50
3550;DHT22;45572;48.804;8.330;2024-01-25T07:29:24;9.10;92.50
3550;DHT22;45572;48.804;8.330;2024-01-25T07:31:51;9.10;92.60
3550;DHT22;45572;48.804;8.330;2024-01-25T07:34:21;9.00;92.70
3550;DHT22;45572;48.804;8.330;2024-01-25T07:36:48;9.00;93.00
3550;DHT22;45572;48.804;8.330;2024-01-25T07:39:17;8.90;92.90
3550;DHT22;45572;48.804;8.330;2024-01-25T07:41:45;8.90;92.90
3550;DHT22;45572;48.804;8.330;2024-01-25T07:44:13;8.80;92.90
3550;DHT22;45572;48.804;8.330;2024-01-25T07:46:40;8.80;93.00
3550;DHT22;45572;48.804;8.330;2024-01-25T07:49:08;8.80;93.20
3550;DHT22;45572;48.804;8.330;2024-01-25T07:51:37;8.70;93.20
3550;DHT22;45572;48.804;8.330;2024-01-25T07:54:05;8.70;93.10
3550;DHT22;45572;48.804;8.330;2024-01-25T07:56:33;8.70;93.30
3550;DHT22;45572;48.804;8.330;2024-01-25T07:59:01;8.60;93.30
3550;DHT22;45572;48.804;8.330;2024-01-25T08:01:29;8.60;93.40
3550;DHT22;45572;48.804;8.330;2024-01-25T08:03:57;8.60;93.40
3550;DHT22;45572;48.804;8.330;2024-01-25T08:06:25;8.60;93.40
3550;DHT22;45572;48.804;8.330;2024-01-25T08:08:54;8.60;93.60
3550;DHT22;45572;48.804;8.330;2024-01-25T08:11:22;8.60;93.40
3550;DHT22;45572;48.804;8.330;2024-01-25T08:13:49;8.60;93.30
3550;DHT22;45572;48.804;8.330;2024-01-25T08:16:17;8.70;93.30
3550;DHT22;45572;48.804;8.330;2024-01-25T08:18:46;8.70;93.00
3550;DHT22;45572;48.804;8.330;2024-01-25T08:21:15;8.70;92.90
3550;DHT22;45572;48.804;8.330;2024-01-25T08:23:43;8.70;93.00
3550;DHT22;45572;48.804;8.330;2024-01-25T08:26:12;8.80;92.90
3550;DHT22;45572;48.804;8.330;2024-01-25T08:28:40;8.90;92.90
3550;DHT22;45572;48.804;8.330;2024-01-25T08:31:10;9.10;92.60
3550;DHT22;45572;48.804;8.330;2024-01-25T08:33:39;9.20;92.10
3550;DHT22;45572;48.804;8.330;2024-01-25T08:36:08;9.30;92.00
3550;DHT22;45572;48.804;8.330;2024-01-25T08:38:36;9.30;91.40
3550;DHT22;45572;48.804;8.330;2024-01-25T08:41:04;9.30;91.40
3550;DHT22;45572;48.804;8.330;2024-01-25T08:43:33;9.20;91.70
3550;DHT22;45572;48.804;8.330;2024-01-25T08:46:01;9.20;92.10
3550;DHT22;45572;48.804;8.330;2024-01-25T08:48:30;9.20;92.30
3550;DHT22;45572;48.804;8.330;2024-01-25T08:50:58;9.20;92.30
3550;DHT22;45572;48.804;8.330;2024-01-25T08:53:26;9.20;92.40
3550;DHT22;45572;48.804;8.330;2024-01-25T08:55:54;9.20;92.30
3550;DHT22;45572;48.804;8.330;2024-01-25T08:58:22;9.30;92.30
3550;DHT22;45572;48.804;8.330;2024-01-25T09:00:52;9.50;92.40
3550;DHT22;45572;48.804;8.330;2024-01-25T09:03:19;9.70;92.10
3550;DHT22;45572;48.804;8.330;2024-01-25T09:05:48;9.90;91.80
3550;DHT22;45572;48.804;8.330;2024-01-25T09:08:17;10.20;91.20
3550;DHT22;45572;48.804;8.330;2024-01-25T09:10:45;10.20;90.90
3550;DHT22;45572;48.804;8.330;2024-01-25T09:13:13;10.30;90.70
3550;DHT22;45572;48.804;8.330;2024-01-25T09:15:42;10.30;90.60
3550;DHT22;45572;48.804;8.330;2024-01-25T09:18:12;10.20;91.00
3550;DHT22;45572;48.804;8.330;2024-01-25T09:20:40;10.30;91.30
3550;DHT22;45572;48.804;8.330;2024-01-25T09:23:14;10.30;91.40
3550;DHT22;45572;48.804;8.330;2024-01-25T09:25:43;10.40;91.50
3550;DHT22;45572;48.804;8.330;2024-01-25T09:28:11;10.50;91.60
3550;DHT22;45572;48.804;8.330;2024-01-25T09:30:39;10.70;91.40
3550;DHT22;45572;48.804;8.330;2024-01-25T09:33:08;10.70;91.10
3550;DHT22;45572;48.804;8.330;2024-01-25T09:35:37;10.80;91.30
3550;DHT22;45572;48.804;8.330;2024-01-25T09:38:05;10.80;91.10
3550;DHT22;45572;48.804;8.330;2024-01-25T09:40:33;10.90;91.00
3550;DHT22;45572;48.804;8.330;2024-01-25T09:43:02;10.80;91.50
3550;DHT22;45572;48.804;8.330;2024-01-25T09:45:31;10.90;91.50
3550;DHT22;45572;48.804;8.330;2024-01-25T09:47:59;10.90;91.30
3550;DHT22;45572;48.804;8.330;2024-01-25T09:50:31;10.80;91.30
3550;DHT22;45572;48.804;8.330;2024-01-25T09:53:03;10.80;91.10
3550;DHT22;45572;48.804;8.330;2024-01-25T09:55:32;10.80;90.70
3550;DHT22;45572;48.804;8.330;2024-01-25T09:58:03;10.80;90.80
3550;DHT22;45572;48.804;8.330;2024-01-25T10:00:34;10.90;90.50
3550;DHT22;45572;48.804;8.330;2024-01-25T10:03:02;11.10;89.70
3550;DHT22;45572;48.804;8.330;2024-01-25T10:05:30;11.40;89.40
3550;DHT22;45572;48.804;8.330;2024-01-25T10:07:59;11.40;88.70
3550;DHT22;45572;48.804;8.330;2024-01-25T10:10:32;11.60;88.80
3550;DHT22;45572;48.804;8.330;2024-01-25T10:13:00;11.90;88.50
3550;DHT22;45572;48.804;8.330;2024-01-25T10:15:28;12.20;87.90
3550;DHT22;45572;48.804;8.330;2024-01-25T10:17:56;12.10;86.60
3550;DHT22;45572;48.804;8.330;2024-01-25T10:20:44;12.00;87.00
3550;DHT22;45572;48.804;8.330;2024-01-25T10:23:12;12.20;86.70
3550;DHT22;45572;48.804;8.330;2024-01-25T10:25:42;12.60;86.20
3550;DHT22;45572;48.804;8.330;2024-01-25T10:28:10;13.40;83.90
3550;DHT22;45572;48.804;8.330;2024-01-25T10:30:39;14.30;82.60
3550;DHT22;45572;48.804;8.330;2024-01-25T10:33:09;14.80;79.60
3550;DHT22;45572;48.804;8.330;2024-01-25T10:35:37;14.70;79.00
3550;DHT22;45572;48.804;8.330;2024-01-25T10:38:06;14.80;78.80
3550;DHT22;45572;48.804;8.330;2024-01-25T10:40:33;14.50;79.90
3550;DHT22;45572;48.804;8.330;2024-01-25T10:43:03;15.10;79.30
3550;DHT22;45572;48.804;8.330;2024-01-25T10:45:31;15.50;76.90
3550;DHT22;45572;48.804;8.330;2024-01-25T10:48:00;15.40;77.80
3550;DHT22;45572;48.804;8.330;2024-01-25T10:50:28;16.40;75.40
3550;DHT22;45572;48.804;8.330;2024-01-25T10:52:57;17.40;74.00
3550;DHT22;45572;48.804;8.330;2024-01-25T10:55:26;18.30;70.40
3550;DHT22;45572;48.804;8.330;2024-01-25T10:57:54;20.30;67.20
3550;DHT22;45572;48.804;8.330;2024-01-25T11:00:23;21.40;62.60
3550;DHT22;45572;48.804;8.330;2024-01-25T11:02:51;22.20;60.30
3550;DHT22;45572;48.804;8.330;2024-01-25T11:05:19;23.30;57.80
3550;DHT22;45572;48.804;8.330;2024-01-25T11:07:49;22.30;56.30
3550;DHT22;45572;48.804;8.330;2024-01-25T11:10:18;22.30;57.70
3550;DHT22;45572;48.804;8.330;2024-01-25T11:12:48;23.50;55.60
3550;DHT22;45572;48.804;8.330;2024-01-25T11:15:20;23.70;54.00
3550;DHT22;45572;48.804;8.330;2024-01-25T11:17:53;23.30;54.10
3550;DHT22;45572;48.804;8.330;2024-01-25T11:20:22;24.10;54.90
3550;DHT22;45572;48.804;8.330;2024-01-25T11:22:59;25.30;51.50
3550;DHT22;45572;48.804;8.330;2024-01-25T11:25:27;25.00;50.90
3550;DHT22;45572;48.804;8.330;2024-01-25T11:27:56;25.10;51.70
3550;DHT22;45572;48.804;8.330;2024-01-25T11:30:25;25.80;50.50
3550;DHT22;45572;48.804;8.330;2024-01-25T11:32:54;26.60;48.70
3550;DHT22;45572;48.804;8.330;2024-01-25T11:35:23;27.10;47.90
3550;DHT22;45572;48.804;8.330;2024-01-25T11:37:53;26.10;48.50
3550;DHT22;45572;48.804;8.330;2024-01-25T11:40:23;25.90;49.70
3550;DHT22;45572;48.804;8.330;2024-01-25T11:42:54;25.10;50.80
3550;DHT22;45572;48.804;8.330;2024-01-25T11:45:22;23.80;52.60
3550;DHT22;45572;48.804;8.330;2024-01-25T11:47:51;22.80;54.10
3550;DHT22;45572;48.804;8.330;2024-01-25T11:50:20;21.60;57.00
3550;DHT22;45572;48.804;8.330;2024-01-25T11:52:49;20.90;58.60
3550;DHT22;45572;48.804;8.330;2024-01-25T11:55:17;20.40;60.00
3550;DHT22;45572;48.804;8.330;2024-01-25T11:57:45;19.70;61.80
3550;DHT22;45572;48.804;8.330;2024-01-25T12:00:14;18.90;63.50
3550;DHT22;45572;48.804;8.330;2024-01-25T12:02:43;18.40;65.20
3550;DHT22;45572;48.804;8.330;2024-01-25T12:05:11;17.70;66.80
3550;DHT22;45572;48.804;8.330;2024-01-25T12:07:41;17.40;68.00
3550;DHT22;45572;48.804;8.330;2024-01-25T12:10:15;16.90;70.20
3550;DHT22;45572;48.804;8.330;2024-01-25T12:12:43;16.60;71.60
3550;DHT22;45572;48.804;8.330;2024-01-25T12:15:11;16.10;70.80
3550;DHT22;45572;48.804;8.330;2024-01-25T12:17:40;15.80;71.90
3550;DHT22;45572;48.804;8.330;2024-01-25T12:20:08;15.30;73.50
3550;DHT22;45572;48.804;8.330;2024-01-25T12:22:40;15.10;74.20
3550;DHT22;45572;48.804;8.330;2024-01-25T12:25:09;14.80;74.90
3550;DHT22;45572;48.804;8.330;2024-01-25T12:27:40;14.60;75.40
3550;DHT22;45572;48.804;8.330;2024-01-25T12:30:09;14.40;75.50
3550;DHT22;45572;48.804;8.330;2024-01-25T12:32:37;14.50;75.60
3550;DHT22;45572;48.804;8.330;2024-01-25T12:35:05;14.70;75.90
3550;DHT22;45572;48.804;8.330;2024-01-25T12:37:34;14.90;75.80
3550;DHT22;45572;48.804;8.330;2024-01-25T12:40:04;14.80;74.00
3550;DHT22;45572;48.804;8.330;2024-01-25T12:42:32;14.60;74.90
3550;DHT22;45572;48.804;8.330;2024-01-25T12:45:00;14.40;75.80
3550;DHT22;45572;48.804;8.330;2024-01-25T12:47:28;14.30;76.30
3550;DHT22;45572;48.804;8.330;2024-01-25T12:49:56;14.10;77.70
3550;DHT22;45572;48.804;8.330;2024-01-25T12:52:24;14.20;77.10
3550;DHT22;45572;48.804;8.330;2024-01-25T12:54:51;14.30;77.10
3550;DHT22;45572;48.804;8.330;2024-01-25T12:57:21;14.10;77.60
3550;DHT22;45572;48.804;8.330;2024-01-25T12:59:51;14.00;77.30
3550;DHT22;45572;48.804;8.330;2024-01-25T13:02:19;13.90;78.70
3550;DHT22;45572;48.804;8.330;2024-01-25T13:04:46;13.80;78.20
3550;DHT22;45572;48.804;8.330;2024-01-25T13:07:14;13.50;78.80
3550;DHT22;45572;48.804;8.330;2024-01-25T13:09:43;13.40;79.80
3550;DHT22;45572;48.804;8.330;2024-01-25T13:12:14;13.30;80.00
3550;DHT22;45572;48.804;8.330;2024-01-25T13:14:43;13.20;81.00
3550;DHT22;45572;48.804;8.330;2024-01-25T13:17:11;13.20;80.80
3550;DHT22;45572;48.804;8.330;2024-01-25T13:19:39;13.40;80.40
3550;DHT22;45572;48.804;8.330;2024-01-25T13:22:06;13.50;80.40
3550;DHT22;45572;48.804;8.330;2024-01-25T13:24:34;13.60;80.80
3550;DHT22;45572;48.804;8.330;2024-01-25T13:27:06;13.70;81.00
3550;DHT22;45572;48.804;8.330;2024-01-25T13:29:33;13.90;80.90
3550;DHT22;45572;48.804;8.330;2024-01-25T13:32:02;13.80;80.20
3550;DHT22;45572;48.804;8.330;2024-01-25T13:34:30;13.80;81.00
3550;DHT22;45572;48.804;8.330;2024-01-25T13:36:58;13.70;80.80
3550;DHT22;45572;48.804;8.330;2024-01-25T13:39:26;13.60;81.20
3550;DHT22;45572;48.804;8.330;2024-01-25T13:41:54;13.60;81.90
3550;DHT22;45572;48.804;8.330;2024-01-25T13:44:22;13.70;82.20
3550;DHT22;45572;48.804;8.330;2024-01-25T13:46:50;13.80;81.70
3550;DHT22;45572;48.804;8.330;2024-01-25T13:49:19;14.00;82.00
3550;DHT22;45572;48.804;8.330;2024-01-25T13:51:47;14.00;81.90
3550;DHT22;45572;48.804;8.330;2024-01-25T13:54:15;13.70;81.50
3550;DHT22;45572;48.804;8.330;2024-01-25T13:56:43;13.60;82.10
3550;DHT22;45572;48.804;8.330;2024-01-25T13:59:10;13.40;82.30
3550;DHT22;45572;48.804;8.330;2024-01-25T14:01:39;13.50;82.80
3550;DHT22;45572;48.804;8.330;2024-01-25T14:04:07;13.40;82.90
3550;DHT22;45572;48.804;8.330;2024-01-25T14:06:36;13.30;83.70
3550;DHT22;45572;48.804;8.330;2024-01-25T14:09:05;13.40;83.50
3550;DHT22;45572;48.804;8.330;2024-01-25T14:11:33;13.20;84.10
3550;DHT22;45572;48.804;8.330;2024-01-25T14:14:01;13.40;83.50
3550;DHT22;45572;48.804;8.330;2024-01-25T14:16:29;13.40;83.60
3550;DHT22;45572;48.804;8.330;2024-01-25T14:18:57;13.40;83.70
3550;DHT22;45572;48.804;8.330;2024-01-25T14:21:27;13.30;83.70
3550;DHT22;45572;48.804;8.330;2024-01-25T14:23:57;13.10;83.80
3550;DHT22;45572;48.804;8.330;2024-01-25T14:26:25;13.20;84.50
3550;DHT22;45572;48.804;8.330;2024-01-25T14:28:53;13.00;84.60
3550;DHT22;45572;48.804;8.330;2024-01-25T14:31:20;13.00;85.10
3550;DHT22;45572;48.804;8.330;2024-01-25T14:33:48;13.00;85.50
3550;DHT22;45572;48.804;8.330;2024-01-25T14:36:16;12.90;86.10
3550;DHT22;45572;48.804;8.330;2024-01-25T14:38:44;12.90;86.40
3550;DHT22;45572;48.804;8.330;2024-01-25T14:41:13;12.80;86.70
3550;DHT22;45572;48.804;8.330;2024-01-25T14:43:41;12.70;87.20
3550;DHT22;45572;48.804;8.330;2024-01-25T14:46:10;12.80;87.40
3550;DHT22;45572;48.804;8.330;2024-01-25T14:48:37;12.90;87.10
3550;DHT22;45572;48.804;8.330;2024-01-25T14:51:06;13.00;87.20
3550;DHT22;45572;48.804;8.330;2024-01-25T14:53:33;12.70;87.20
3550;DHT22;45572;48.804;8.330;2024-01-25T14:56:01;12.40;87.80
3550;DHT22;45572;48.804;8.330;2024-01-25T14:58:30;12.30;88.50
3550;DHT22;45572;48.804;8.330;2024-01-25T15:00:58;12.40;88.30
3550;DHT22;45572;48.804;8.330;2024-01-25T15:03:26;12.40;88.00
3550;DHT22;45572;48.804;8.330;2024-01-25T15:05:54;12.30;88.20
3550;DHT22;45572;48.804;8.330;2024-01-25T15:08:23;12.40;88.30
3550;DHT22;45572;48.804;8.330;2024-01-25T15:10:50;12.50;88.30
3550;DHT22;45572;48.804;8.330;2024-01-25T15:13:18;12.30;88.10
3550;DHT22;45572;48.804;8.330;2024-01-25T15:15:47;12.40;88.30
3550;DHT22;45572;48.804;8.330;2024-01-25T15:18:15;12.50;88.30
3550;DHT22;45572;48.804;8.330;2024-01-25T15:20:44;12.60;87.80
3550;DHT22;45572;48.804;8.330;2024-01-25T15:23:12;12.60;87.70
3550;DHT22;45572;48.804;8.330;2024-01-25T15:25:40;12.70;87.70
3550;DHT22;45572;48.804;8.330;2024-01-25T15:28:08;12.80;87.60
3550;DHT22;45572;48.804;8.330;2024-01-25T15:30:35;12.90;87.60
3550;DHT22;45572;48.804;8.330;2024-01-25T15:33:04;12.90;87.50
3550;DHT22;45572;48.804;8.330;2024-01-25T15:35:33;12.90;87.00
3550;DHT22;45572;48.804;8.330;2024-01-25T15:38:00;12.70;87.40
3550;DHT22;45572;48.804;8.330;2024-01-25T15:40:32;12.80;87.50
3550;DHT22;45572;48.804;8.330;2024-01-25T15:42:59;12.80;87.30
3550;DHT22;45572;48.804;8.330;2024-01-25T15:45:27;12.80;87.50
3550;DHT22;45572;48.804;8.330;2024-01-25T15:47:55;12.80;87.60
3550;DHT22;45572;48.804;8.330;2024-01-25T15:50:25;12.80;87.70
3550;DHT22;45572;48.804;8.330;2024-01-25T15:52:53;12.80;88.00
3550;DHT22;45572;48.804;8.330;2024-01-25T15:55:22;12.70;88.30
3550;DHT22;45572;48.804;8.330;2024-01-25T15:57:50;12.70;88.50